• Join FlightAware (Why Join?)
  • Login
  • US Flag 
01:27AM EDT


 

Airport Tracker/Info


-or-


 

Live Flight TrackerFlight Track Log ✈ BWA520 ✈ 01-Feb-2014 ✈ TTPP / POS - KJFK

Flight Track Log - Related Links

Times and Time Zones

All times are in EST time to prevent confusion due to time zone crossing. See the BWA520 flight status page for this flight to view local times or setup timezone preferences in your user account.

Time Position Orientation Groundspeed Altitude Reporting Facility
EST Latitude Longitude Course Direction KTS MPH feet Rate Location/Type
12:07AM 11.1225 -61.5686 337° Northwest  Level FlightAware Approximate
12:08AM 11.2279 -61.6150 337° Northwest  Level FlightAware Approximate
12:09AM 11.3333 -61.6614 337° Northwest  Level FlightAware Approximate
12:10AM 11.4386 -61.7079 337° Northwest  Level FlightAware Approximate
12:11AM 11.5440 -61.7543 337° Northwest  Level FlightAware Approximate
12:12AM 11.6553 -61.7910 342° North  Level Estimated
12:13AM 11.7666 -61.8278 342° North  Level Estimated
12:14AM 11.8779 -61.8645 342° North  Level Estimated
12:15AM 11.9892 -61.9013 342° North  Level Estimated
12:16AM 12.1004 -61.9381 342° North  Level Estimated
12:17AM 12.2117 -61.9749 342° North  Level Estimated
12:18AM 12.3230 -62.0118 342° North  Level Estimated
12:19AM 12.4342 -62.0487 342° North  Level Estimated
12:20AM 12.5455 -62.0856 342° North  Level Estimated
12:21AM 12.6567 -62.1226 342° North  Level Estimated
12:22AM 12.7680 -62.1596 342° North  Level Estimated
12:23AM 12.8792 -62.1966 342° North  Level Estimated
12:24AM 12.9904 -62.2337 342° North  Level Estimated
12:25AM 13.1017 -62.2708 342° North  Level Estimated
12:26AM 13.2129 -62.3079 342° North  Level Estimated
12:27AM 13.3241 -62.3451 342° North  Level Estimated
12:28AM 13.4353 -62.3823 342° North  Level Estimated
12:29AM 13.5465 -62.4195 342° North  Level Estimated
12:30AM 13.6577 -62.4568 342° North  Level Estimated
12:31AM 13.7689 -62.4941 342° North  Level Estimated
12:32AM 13.8801 -62.5314 342° North  Level Estimated
12:33AM 13.9913 -62.5688 342° North  Level Estimated
12:34AM 14.1025 -62.6062 342° North  Level Estimated
12:35AM 14.2136 -62.6437 342° North  Level Estimated
12:36AM 14.3248 -62.6812 342° North  Level Estimated
12:37AM 14.4360 -62.7187 342° North  Level Estimated
12:38AM 14.5471 -62.7563 342° North  Level Estimated
12:39AM 14.6583 -62.7939 342° North  Level Estimated
12:40AM 14.7694 -62.8315 342° North  Level Estimated
12:41AM 14.8805 -62.8692 342° North  Level Estimated
12:42AM 14.9917 -62.9069 342° North  Level Estimated
12:43AM 15.1028 -62.9446 342° North  Level Estimated
12:44AM 15.2139 -62.9824 342° North  Level Estimated
12:45AM 15.3250 -63.0202 342° North  Level Estimated
12:46AM 15.4361 -63.0581 342° North  Level Estimated
12:47AM 15.5472 -63.0960 342° North  Level Estimated
12:48AM 15.6583 -63.1340 342° North  Level Estimated
12:49AM 15.7694 -63.1720 342° North  Level Estimated
12:49AM 14.8833 -64.0500 342° North 430 495 36,000  Level San Juan Center
12:50AM 15.8805 -63.2100 342° North  Level Estimated
12:50AM 14.9833 -64.1167 327° Northwest 430 495 36,000  Level San Juan Center
12:51AM 15.9915 -63.2481 342° North  Level Estimated
12:51AM 15.0833 -64.2000 321° Northwest 440 506 36,000  Level San Juan Center
12:52AM 16.1026 -63.2862 342° North  Level Estimated
12:52AM 15.1833 -64.2667 327° Northwest 430 495 36,000  Level San Juan Center
12:53AM 16.2137 -63.3244 342° North  Level Estimated
12:53AM 15.2833 -64.3167 334° Northwest 440 506 36,000  Level San Juan Center
12:54AM 16.3247 -63.3626 342° North  Level Estimated
12:54AM 15.3833 -64.3833 327° Northwest 440 506 36,000  Level San Juan Center
12:55AM 15.5000 -64.4333 338° Northwest 430 495 36,000  Level San Juan Center
12:56AM 15.6167 -64.4833 338° Northwest 430 495 36,000  Level San Juan Center
12:57AM 15.7333 -64.5167 345° North 430 495 36,000  Level San Juan Center
12:58AM 15.8333 -64.5667 334° Northwest 430 495 36,000  Level San Juan Center
12:59AM 15.9500 -64.6333 331° Northwest 420 483 36,000  Level San Juan Center
01:00AM 16.0500 -64.6833 334° Northwest 420 483 36,000  Level San Juan Center
01:01AM 16.1667 -64.7167 345° North 430 495 36,000  Level San Juan Center
01:02AM 16.2667 -64.7667 334° Northwest 430 495 36,000  Level San Juan Center
01:03AM 16.3833 -64.8167 338° Northwest 430 495 36,000  Level San Juan Center
01:04AM 16.5000 -64.8667 338° Northwest 430 495 36,000  Level San Juan Center
01:05AM 16.6167 -64.9167 338° Northwest 440 506 36,000  Level San Juan Center
01:06AM 16.7167 -64.9667 334° Northwest 440 506 36,000  Level San Juan Center
01:07AM 16.8333 -65.0167 338° Northwest 440 506 36,000  Level San Juan Center
01:08AM 16.9500 -65.0667 338° Northwest 440 506 36,000  Level San Juan Center
01:09AM 17.0667 -65.1167 338° Northwest 440 506 36,000  Level San Juan Center
01:10AM 17.1667 -65.1667 334° Northwest 430 495 36,000  Level San Juan Center
01:11AM 17.2833 -65.2167 338° Northwest 430 495 36,000  Level San Juan Center
01:12AM 17.3833 -65.2667 334° Northwest 430 495 36,000  Level San Juan Center
01:13AM 17.5000 -65.3167 338° Northwest 430 495 36,000  Level San Juan Center
01:14AM 17.6167 -65.3667 338° Northwest 420 483 36,000  Level San Juan Center
01:15AM 17.7333 -65.4167 338° Northwest 430 495 36,000  Level San Juan Center
01:16AM 17.8333 -65.4667 335° Northwest 420 483 36,000  Level San Juan Center
01:17AM 17.9333 -65.5167 335° Northwest 430 495 36,000  Level San Juan Center
01:18AM 18.0500 -65.5667 338° Northwest 430 495 36,000  Level San Juan Center
01:19AM 18.1500 -65.6000 342° North 420 483 36,000  Level San Juan Center
01:20AM 18.2667 -65.6500 338° Northwest 430 495 36,000  Level San Juan Center
01:21AM 18.3833 -65.7000 338° Northwest 420 483 36,000  Level San Juan Center
01:22AM 18.4833 -65.7500 335° Northwest 420 483 36,000  Level San Juan Center
01:23AM 18.6000 -65.8000 338° Northwest 430 495 36,000  Level San Juan Center
01:24AM 18.7167 -65.8500 338° Northwest 420 483 36,000  Level San Juan Center
01:25AM 18.8167 -65.9000 335° Northwest 420 483 36,000  Level San Juan Center
01:26AM 18.9167 -65.9500 335° Northwest 430 495 36,000  Level San Juan Center
01:27AM 19.0333 -66.0000 338° Northwest 420 483 36,000  Level San Juan Center
01:28AM 19.1333 -66.0500 335° Northwest 420 483 36,000  Level San Juan Center
01:29AM 19.2333 -66.1000 335° Northwest 400 460 36,000  Level San Juan Center
01:30AM 19.3500 -66.1333 345° North 410 472 36,000  Level San Juan Center
01:31AM 19.4500 -66.1833 335° Northwest 410 472 36,000  Level San Juan Center
01:32AM 19.5500 -66.2333 335° Northwest 400 460 36,000  Level San Juan Center
01:33AM 19.6500 -66.2833 335° Northwest 410 472 36,000  Level San Juan Center
01:34AM 19.7667 -66.3333 338° Northwest 410 472 36,000  Level San Juan Center
01:35AM 19.8667 -66.3833 335° Northwest 410 472 36,000  Level San Juan Center
01:36AM 19.9667 -66.4333 335° Northwest 400 460 36,000  Level San Juan Center
01:37AM 20.0833 -66.4833 338° Northwest 410 472 36,000  Level San Juan Center
01:38AM 20.1833 -66.5167 343° North 410 472 36,000  Level San Juan Center
01:39AM 20.2833 -66.5667 335° Northwest 400 460 36,000  Level San Juan Center
01:40AM 20.3833 -66.6167 335° Northwest 410 472 36,000  Level San Juan Center
01:41AM 20.5000 -66.6667 338° Northwest 410 472 36,000  Level San Juan Center
01:42AM 20.6000 -66.7167 335° Northwest 400 460 36,000  Level San Juan Center
01:43AM 20.7000 -66.7667 335° Northwest 410 472 36,000  Level San Juan Center
01:44AM 20.8000 -66.8167 335° Northwest 410 472 36,000  Level San Juan Center
01:45AM 20.9167 -66.8667 338° Northwest 410 472 36,000  Level San Juan Center
01:46AM 21.0167 -66.9167 335° Northwest 410 472 36,100  Climbing San Juan Center
01:47AM 21.1167 -66.9667 335° Northwest 410 472 36,000  Descending San Juan Center
01:48AM 21.2167 -67.0167 335° Northwest 410 472 36,100 420 Climbing San Juan Center
01:49AM 21.3333 -67.0500 345° North 400 460 36,900 720 Climbing San Juan Center
01:50AM 21.4333 -67.1000 335° Northwest 400 460 37,600 540 Climbing San Juan Center
01:51AM 21.5333 -67.1500 335° Northwest 400 460 38,000 180 Climbing San Juan Center
01:52AM 21.6333 -67.2000 335° Northwest 410 472 38,000  Level San Juan Center
01:53AM 21.7500 -67.2167 352° North 420 483 38,000  Level San Juan Center
01:54AM 21.6167 -67.2000 349° North 443 510 38,000  Level New York Oceanic (ODAPS)
01:59AM 22.2333 -67.3167 349° North 423 487 38,000  Level New York Oceanic (ODAPS)
02:30AM 25.4667 -68.0000 349° North 409 471 38,000  Level New York Oceanic (ODAPS)
02:49AM 27.9333 -68.5333 349° North 433 498 38,000  Level New York Oceanic (ODAPS)
03:14AM 30.9000 -69.2333 349° North 439 505 38,000  Level New York Oceanic (ODAPS)
04:10AM 37.6706 -71.0372 330° Northwest 446 513 38,100  Climbing New York Center
04:11AM 37.8114 -71.0532 330° Northwest 439 505 38,000  Descending FlightAware Transoceanic
04:11AM 37.7642 -71.1111 328° Northwest 412 474 38,100  Climbing New York Center
04:12AM 37.9061 -71.1232 330° Northwest 439 505 38,000  Descending FlightAware Transoceanic
04:12AM 37.8556 -71.1958 324° Northwest 412 474 38,100  Climbing New York Center
04:13AM 38.0008 -71.1934 330° Northwest 439 505 38,000  Descending FlightAware Transoceanic
04:13AM 37.9492 -71.2781 325° Northwest 412 474 38,100  Climbing New York Center
04:14AM 38.0954 -71.2637 330° Northwest 439 505 38,000  Descending FlightAware Transoceanic
04:14AM 38.0383 -71.3553 326° Northwest 406 467 38,100  Climbing New York Center
04:15AM 38.1900 -71.3343 330° Northwest 439 505 38,000  Descending FlightAware Transoceanic
04:15AM 38.1256 -71.4431 322° Northwest 406 467 38,100  Climbing New York Center
04:16AM 38.2189 -71.5181 328° Northwest 406 467 38,100  Level New York Center
04:17AM 38.3122 -71.5983 326° Northwest 406 467 38,100  Level New York Center
04:18AM 38.4033 -71.6817 324° Northwest 406 467 38,100  Level New York Center
04:19AM 38.4922 -71.7625 325° Northwest 406 467 38,100  Level New York Center
04:20AM 38.5833 -71.8514 323° Northwest 406 467 38,100  Level New York Center
04:21AM 38.6722 -71.9272 326° Northwest 401 461 38,100  Level New York Center
04:22AM 38.7608 -72.0111 324° Northwest 401 461 38,100  Level New York Center
04:23AM 38.8517 -72.0928 325° Northwest 401 461 38,100 -1,080 Level New York Center
04:24AM 38.9383 -72.1692 326° Northwest 401 461 36,000 -2,100 Descending New York Center
04:25AM 39.0250 -72.2483 325° Northwest 395 455 33,900 -2,100 Descending New York Center
04:26AM 39.1075 -72.3250 324° Northwest 378 435 31,900 -1,980 Descending New York Center
04:27AM 39.1856 -72.4019 323° Northwest 366 421 30,000 -1,860 Descending New York Center
04:28AM 39.2658 -72.4733 325° Northwest 360 414 28,200 -1,800 Descending New York Center
04:29AM 39.3419 -72.5450 324° Northwest 348 400 26,400 -1,800 Descending New York Center
04:30AM 39.4139 -72.6114 325° Northwest 332 382 24,700 -1,740 Descending New York Center
04:31AM 39.4836 -72.6750 325° Northwest 326 375 23,000 -1,620 Descending New York Center
04:32AM 39.5514 -72.7417 323° Northwest 307 353 21,500 -1,560 Descending New York Center
04:33AM 39.6169 -72.8056 323° Northwest 302 348 19,900 -1,560 Descending New York Center
04:34AM 39.6806 -72.8639 325° Northwest 297 342 18,400 -1,500 Descending New York Center
04:35AM 39.7461 -72.9281 323° Northwest 291 335 17,000 -1,500 Descending New York Center
04:36AM 39.8136 -72.9897 325° Northwest 291 335 15,400 -1,680 Descending New York Center
04:37AM 39.8772 -73.0511 323° Northwest 291 335 13,700 -1,680 Descending New York Center
04:38AM 39.9428 -73.1100 325° Northwest 291 335 12,100 -1,560 Descending New York Center
04:39AM 40.0039 -73.1664 325° Northwest 286 329 10,600 -1,380 Descending New York Center
04:40AM 40.0633 -73.2228 324° Northwest 273 314 9,400 -1,200 Descending New York Center
04:41AM 40.1164 -73.2761 322° Northwest 259 298 8,300 -1,200 Descending New York Center
04:42AM 40.1756 -73.3328 324° Northwest 259 298 7,100 -600 Descending New York Center
04:43AM 40.2417 -73.3569 344° North 253 291 7,100  Level New York Center
04:44AM 40.3122 -73.3731 350° North 253 291 7,100  Level New York Center
04:45AM 40.3806 -73.3894 350° North 253 291 7,100 -600 Level New York Center
04:46AM 40.4403 -73.4272 334° Northwest 243 280 5,900 -1,200 Descending New York Center
04:47AM 40.4994 -73.4731 330° Northwest 243 280 4,700 -1,200 Descending New York Center
04:48AM 40.5439 -73.5403 311° West 248 285 3,600 -900 Descending New York Center
04:49AM 40.5675 -73.5958 299° West 222 255 2,900 -780 Descending New York Center
04:50AM 40.5933 -73.6489 303° West 171 197 2,100 -840 Descending New York Center
04:51AM 40.6111 -73.6881 301° West 150 173 1,300 -840 Descending New York Center
04:52AM 40.6328 -73.7381 300° West 139 160 500 -480 Descending New York Center
04:53AM 40.6506 -73.7744 303° West 139 160 400 3,240 Descending New York Center
04:54AM 40.6703 -73.8164 302° West 139 160 7,000 3,300 Climbing New York Center
04:55AM 40.6900 -73.8583 302° West 139 160 7,000  Level New York Center
04:57AM 40.6398 -73.7789 130° Southeast  Level Estimated
05:04AM 40.6398 -73.7789 72° East  Level Estimated
05:05AM 40.6398 -73.7789 72° East  Level Estimated
05:06AM 40.6398 -73.7789 72° East  Level Estimated